Time;durP1;ratioP1;P1;durP2;ratioP2;P2;SDS_P1;SDS_P2;PMS_P1;PMS_P2;Temp;Humidity;BMP_temperature;BMP_pressure;BME280_temperature;BME280_humidity;BME280_pressure;Samples;Min_cycle;Max_cycle;Signal;HPM_P1;HPM_P2
2023/07/22 00:01:13;;;;;;;6.30;5.70;;;18.30;96.80;;;;;;5033753;28;20662;-31
2023/07/22 00:03:43;;;;;;;7.93;6.45;;;18.20;97.00;;;;;;5038188;28;20347;-31
2023/07/22 00:06:13;;;;;;;8.25;5.95;;;18.20;96.70;;;;;;5046395;28;20608;-30
2023/07/22 00:08:42;;;;;;;7.47;6.03;;;18.20;96.60;;;;;;5043811;28;20265;-30
2023/07/22 00:11:11;;;;;;;7.28;6.57;;;18.10;96.60;;;;;;5030218;28;20200;-30
2023/07/22 00:13:39;;;;;;;6.93;6.22;;;18.10;96.60;;;;;;5039778;28;20201;-30
2023/07/22 00:16:07;;;;;;;8.90;6.88;;;18.10;96.60;;;;;;5047381;28;20227;-30
2023/07/22 00:18:35;;;;;;;7.85;6.60;;;18.10;96.70;;;;;;5048848;28;20777;-31
2023/07/22 00:21:06;;;;;;;7.15;6.07;;;18.00;96.60;;;;;;5031612;28;20205;-30
2023/07/22 00:23:36;;;;;;;8.25;6.13;;;18.00;96.70;;;;;;5029887;28;20216;-31
2023/07/22 00:26:04;;;;;;;6.28;5.68;;;18.00;96.70;;;;;;5033500;28;20239;-30
2023/07/22 00:28:31;;;;;;;8.07;5.93;;;18.00;96.70;;;;;;5037250;28;20216;-30
2023/07/22 00:31:04;;;;;;;7.00;6.30;;;18.00;96.70;;;;;;5027199;28;20211;-30
2023/07/22 00:33:31;;;;;;;8.25;6.65;;;17.90;96.60;;;;;;5028417;28;20748;-31
2023/07/22 00:36:01;;;;;;;7.33;6.20;;;17.90;96.60;;;;;;5030526;28;20233;-31
2023/07/22 00:38:33;;;;;;;7.60;6.80;;;17.90;96.70;;;;;;5029562;28;20236;-30
2023/07/22 00:41:01;;;;;;;6.72;6.05;;;17.80;96.70;;;;;;5033350;28;20233;-31
2023/07/22 00:43:28;;;;;;;9.43;7.03;;;17.80;96.80;;;;;;5028488;28;20213;-31
2023/07/22 00:45:55;;;;;;;8.40;6.60;;;17.80;96.80;;;;;;5030427;28;20320;-30
2023/07/22 00:48:25;;;;;;;7.53;6.72;;;17.80;96.70;;;;;;5029224;28;20212;-30
2023/07/22 00:50:54;;;;;;;9.50;6.77;;;17.80;96.70;;;;;;5028398;28;21039;-30
2023/07/22 00:53:22;;;;;;;7.60;6.70;;;17.80;96.80;;;;;;5045480;28;20662;-31
2023/07/22 00:55:51;;;;;;;7.50;6.70;;;17.80;96.80;;;;;;5046581;28;20258;-26
2023/07/22 00:58:23;;;;;;;7.57;6.57;;;17.80;96.80;;;;;;5028472;28;20197;-26
2023/07/22 01:00:52;;;;;;;8.50;6.93;;;17.80;96.80;;;;;;5026063;28;20589;-26
2023/07/22 01:03:23;;;;;;;8.40;7.00;;;17.70;96.80;;;;;;5030181;28;20594;-26
2023/07/22 01:05:54;;;;;;;8.10;6.90;;;17.70;96.90;;;;;;5042383;28;20726;-26
2023/07/22 01:08:26;;;;;;;7.72;6.93;;;17.70;96.90;;;;;;5031499;28;20209;-26
2023/07/22 01:10:54;;;;;;;9.18;7.25;;;17.70;96.90;;;;;;5035877;28;21139;-26
2023/07/22 01:13:26;;;;;;;7.97;7.17;;;17.70;96.90;;;;;;5041659;28;20220;-26
2023/07/22 01:15:58;;;;;;;8.33;7.17;;;17.70;96.90;;;;;;5026005;28;20193;-26
2023/07/22 01:18:27;;;;;;;8.03;7.23;;;17.70;97.00;;;;;;5038019;28;20234;-26
2023/07/22 01:20:55;;;;;;;8.20;7.17;;;17.70;97.00;;;;;;5035994;28;20212;-26
2023/07/22 01:23:29;;;;;;;12.33;8.63;;;17.70;97.00;;;;;;5039205;28;20200;-26
2023/07/22 01:25:59;;;;;;;9.10;8.02;;;17.60;97.10;;;;;;5039780;28;20207;-26
2023/07/22 01:28:27;;;;;;;8.60;7.50;;;17.60;97.00;;;;;;5037418;28;20209;-30
2023/07/22 01:31:00;;;;;;;8.40;7.50;;;17.60;96.90;;;;;;5032652;28;20231;-31
2023/07/22 01:33:33;;;;;;;10.60;8.00;;;17.60;96.90;;;;;;5036064;28;20193;-31
2023/07/22 01:36:01;;;;;;;8.97;8.07;;;17.60;97.00;;;;;;5026127;28;20217;-30
2023/07/22 01:38:29;;;;;;;9.40;7.85;;;17.60;97.00;;;;;;5027061;28;20282;-30
2023/07/22 01:41:00;;;;;;;11.30;7.77;;;17.60;97.10;;;;;;5025203;28;20211;-31
2023/07/22 01:43:30;;;;;;;8.73;7.82;;;17.50;97.10;;;;;;5034461;28;20240;-30
2023/07/22 01:45:57;;;;;;;10.73;8.63;;;17.60;97.10;;;;;;5026650;28;20232;-30
2023/07/22 01:48:28;;;;;;;8.90;7.75;;;17.60;97.10;;;;;;5026911;28;20208;-30
2023/07/22 01:50:55;;;;;;;9.70;8.70;;;17.50;97.10;;;;;;5026379;28;20205;-31
2023/07/22 01:53:22;;;;;;;12.05;8.55;;;17.50;97.10;;;;;;5026741;28;20588;-31
2023/07/22 01:55:52;;;;;;;9.93;8.10;;;17.50;97.10;;;;;;5026315;28;20627;-31
2023/07/22 01:58:19;;;;;;;10.57;8.00;;;17.50;97.10;;;;;;5025758;28;20200;-31
2023/07/22 02:00:50;;;;;;;9.27;7.73;;;17.50;97.10;;;;;;5028340;28;20209;-31
2023/07/22 02:03:20;;;;;;;8.60;7.43;;;17.50;97.10;;;;;;5025303;28;20244;-31
2023/07/22 02:05:54;;;;;;;9.50;8.07;;;17.40;97.10;;;;;;5028876;28;20201;-31
2023/07/22 02:08:21;;;;;;;8.90;7.87;;;17.40;97.10;;;;;;5028354;28;20200;-31
2023/07/22 02:10:51;;;;;;;12.30;8.87;;;17.40;97.10;;;;;;5033560;28;20223;-30
2023/07/22 02:13:21;;;;;;;10.63;8.33;;;17.40;97.10;;;;;;5045496;28;20212;-30
2023/07/22 02:15:50;;;;;;;9.70;8.20;;;17.40;97.10;;;;;;5028596;28;20197;-31
2023/07/22 02:18:21;;;;;;;11.07;8.48;;;17.30;97.10;;;;;;5024972;28;20723;-31
2023/07/22 02:20:56;;;;;;;11.73;8.27;;;17.30;97.10;;;;;;5028647;28;20197;-30
2023/07/22 02:23:24;;;;;;;9.00;8.03;;;17.30;97.20;;;;;;5033329;28;20211;-31
2023/07/22 02:25:54;;;;;;;11.37;8.90;;;17.30;97.10;;;;;;5037305;28;20204;-26
2023/07/22 02:28:28;;;;;;;11.03;8.40;;;17.30;97.10;;;;;;5037900;28;20254;-26
2023/07/22 02:31:04;;;;;;;11.60;9.03;;;17.30;97.20;;;;;;5030702;28;20197;-26
2023/07/22 02:33:34;;;;;;;11.97;8.83;;;17.20;97.20;;;;;;5027202;28;20204;-26
2023/07/22 02:36:02;;;;;;;11.33;8.77;;;17.20;97.10;;;;;;5023170;28;20236;-26
2023/07/22 02:38:29;;;;;;;12.00;8.83;;;17.20;97.10;;;;;;5026774;28;20737;-26
2023/07/22 02:41:08;;;;;;;13.55;9.38;;;17.20;97.30;;;;;;5033572;28;20683;-26
2023/07/22 02:43:40;;;;;;;11.70;9.60;;;17.20;97.30;;;;;;5034054;28;20602;-26
2023/07/22 02:46:08;;;;;;;11.23;8.90;;;17.10;97.20;;;;;;5033350;28;20794;-26
2023/07/22 02:48:39;;;;;;;12.60;10.17;;;17.10;97.50;;;;;;5028137;28;20209;-26
2023/07/22 02:51:11;;;;;;;10.37;8.90;;;17.10;97.20;;;;;;5030507;28;20592;-26
2023/07/22 02:53:40;;;;;;;10.87;8.37;;;17.10;97.30;;;;;;5036809;28;20200;-26
2023/07/22 02:56:08;;;;;;;11.40;9.53;;;17.10;97.20;;;;;;5030524;28;20226;-26
2023/07/22 02:58:37;;;;;;;10.13;9.03;;;17.00;97.10;;;;;;5040249;28;20200;-26
2023/07/22 03:01:05;;;;;;;11.23;9.27;;;17.00;97.20;;;;;;5024411;28;20213;-30
2023/07/22 03:03:34;;;;;;;12.63;9.60;;;17.00;97.20;;;;;;5034440;28;20234;-31
2023/07/22 03:06:04;;;;;;;11.10;9.67;;;16.90;97.20;;;;;;5031962;28;20209;-31
2023/07/22 03:08:34;;;;;;;12.40;9.37;;;16.90;97.20;;;;;;5024325;28;20244;-26
2023/07/22 03:11:06;;;;;;;12.03;9.30;;;16.90;97.20;;;;;;5025957;28;20248;-26
2023/07/22 03:13:38;;;;;;;10.70;8.60;;;16.90;97.30;;;;;;5037576;28;20239;-26
2023/07/22 03:16:08;;;;;;;11.83;9.80;;;16.90;97.30;;;;;;5042987;28;20215;-26
2023/07/22 03:18:42;;;;;;;11.37;8.90;;;16.80;97.30;;;;;;5044856;28;20220;-26
2023/07/22 03:21:10;;;;;;;12.27;9.73;;;16.80;97.20;;;;;;5038643;28;20215;-26
2023/07/22 03:23:39;;;;;;;10.67;9.50;;;16.80;97.20;;;;;;5025587;28;20275;-26
2023/07/22 03:26:09;;;;;;;12.97;9.73;;;16.80;97.20;;;;;;5025742;28;20189;-26
2023/07/22 03:28:37;;;;;;;10.95;9.38;;;16.80;97.20;;;;;;5039683;28;20679;-26
2023/07/22 03:31:06;;;;;;;11.73;9.63;;;16.80;97.20;;;;;;5026409;28;20227;-26
2023/07/22 03:33:34;;;;;;;14.43;9.93;;;16.70;97.20;;;;;;5038339;28;20211;-26
2023/07/22 03:36:02;;;;;;;12.97;10.00;;;16.70;97.20;;;;;;5029880;28;20232;-30
2023/07/22 03:38:34;;;;;;;12.50;9.27;;;16.70;97.20;;;;;;5043130;28;20244;-30
2023/07/22 03:41:05;;;;;;;13.17;9.63;;;16.70;97.30;;;;;;5028908;28;20204;-31
2023/07/22 03:43:35;;;;;;;14.03;10.73;;;16.70;97.30;;;;;;5025723;28;20193;-30
2023/07/22 03:46:02;;;;;;;12.53;9.27;;;16.70;97.30;;;;;;5039817;28;20209;-31
2023/07/22 03:48:29;;;;;;;14.23;10.13;;;16.70;97.30;;;;;;5035591;28;20232;-31
2023/07/22 03:50:59;;;;;;;11.80;9.63;;;16.70;97.40;;;;;;5028545;28;20213;-26
2023/07/22 03:53:42;;;;;;;13.83;9.53;;;16.60;97.30;;;;;;5042181;28;20756;-26
2023/07/22 03:56:14;;;;;;;12.40;9.07;;;16.60;97.30;;;;;;5027463;28;20274;-26
2023/07/22 03:58:44;;;;;;;12.13;9.50;;;16.60;97.40;;;;;;5031872;28;20303;-26
2023/07/22 04:01:12;;;;;;;15.07;9.80;;;16.60;97.50;;;;;;5028416;28;20634;-26
2023/07/22 04:03:42;;;;;;;15.00;10.80;;;16.60;97.40;;;;;;5031973;28;20227;-26
2023/07/22 04:06:11;;;;;;;13.37;10.40;;;16.60;97.40;;;;;;5046109;28;20353;-26
2023/07/22 04:08:41;;;;;;;16.33;10.20;;;16.60;97.50;;;;;;5040422;28;20278;-26
2023/07/22 04:11:08;;;;;;;14.07;9.90;;;16.60;97.50;;;;;;5042500;28;20215;-26
2023/07/22 04:13:37;;;;;;;17.23;10.87;;;16.50;97.40;;;;;;5046488;28;20213;-26
2023/07/22 04:16:05;;;;;;;14.07;10.60;;;16.50;97.40;;;;;;5027084;28;20197;-26
2023/07/22 04:18:35;;;;;;;14.23;11.17;;;16.50;97.50;;;;;;5031743;28;20228;-26
2023/07/22 04:21:09;;;;;;;14.03;10.60;;;16.50;97.50;;;;;;5042417;28;20215;-26
2023/07/22 04:23:39;;;;;;;14.87;10.10;;;16.50;97.50;;;;;;5046918;28;20209;-26
2023/07/22 04:26:10;;;;;;;13.80;10.10;;;16.50;97.50;;;;;;5028825;28;20671;-26
2023/07/22 04:28:40;;;;;;;11.75;10.10;;;16.50;97.60;;;;;;5026987;28;20609;-30
2023/07/22 04:31:10;;;;;;;14.10;10.53;;;16.40;97.60;;;;;;5044067;28;20212;-30
2023/07/22 04:33:37;;;;;;;14.13;10.83;;;16.40;97.60;;;;;;5045080;28;20209;-30
2023/07/22 04:36:07;;;;;;;13.33;10.90;;;16.40;97.60;;;;;;5034609;28;20211;-30
2023/07/22 04:38:34;;;;;;;12.50;9.80;;;16.40;97.60;;;;;;5029302;28;20273;-30
2023/07/22 04:41:05;;;;;;;17.27;10.90;;;16.50;97.70;;;;;;5033618;28;20556;-30
2023/07/22 04:43:32;;;;;;;14.47;9.73;;;16.50;97.70;;;;;;5043003;28;20725;-30
2023/07/22 04:46:02;;;;;;;13.87;9.77;;;16.50;97.80;;;;;;5038246;28;20196;-30
2023/07/22 04:48:31;;;;;;;15.97;11.03;;;16.50;97.80;;;;;;5046328;28;20208;-30
2023/07/22 04:50:58;;;;;;;14.47;10.77;;;16.50;97.90;;;;;;5034905;28;20682;-30
2023/07/22 04:53:28;;;;;;;14.00;10.50;;;16.50;97.80;;;;;;5026596;28;20213;-30
2023/07/22 04:56:00;;;;;;;19.00;10.93;;;16.50;97.80;;;;;;5043248;28;20303;-31
2023/07/22 04:58:29;;;;;;;14.63;10.03;;;16.60;98.00;;;;;;5045738;28;20232;-31
2023/07/22 05:00:58;;;;;;;14.17;10.83;;;16.60;98.00;;;;;;5037598;28;20201;-31
2023/07/22 05:03:26;;;;;;;14.93;10.53;;;16.60;98.10;;;;;;5029947;28;20243;-30
2023/07/22 05:05:57;;;;;;;13.53;11.00;;;16.60;98.10;;;;;;5031282;28;20318;-30
2023/07/22 05:08:26;;;;;;;12.87;10.33;;;16.70;98.20;;;;;;5038941;28;20741;-31
2023/07/22 05:10:56;;;;;;;13.20;9.87;;;16.70;98.20;;;;;;5044439;28;20714;-30
2023/07/22 05:13:24;;;;;;;14.40;10.10;;;16.70;98.20;;;;;;5041616;28;20266;-30
2023/07/22 05:15:51;;;;;;;16.80;10.03;;;16.70;98.20;;;;;;5047092;28;20212;-30
2023/07/22 05:18:18;;;;;;;13.57;10.50;;;16.80;98.20;;;;;;5047453;28;20220;-30
2023/07/22 05:20:48;;;;;;;21.33;11.37;;;16.80;98.20;;;;;;5046404;28;20196;-31
2023/07/22 05:23:17;;;;;;;14.97;9.97;;;16.90;98.40;;;;;;5043553;28;20216;-31
2023/07/22 05:25:53;;;;;;;16.43;10.47;;;16.90;98.40;;;;;;5045831;28;20326;-30
2023/07/22 05:28:20;;;;;;;12.00;10.02;;;16.90;98.50;;;;;;5043005;28;20792;-30
2023/07/22 05:30:51;;;;;;;13.73;10.50;;;16.90;98.50;;;;;;5034794;28;20221;-30
2023/07/22 05:33:23;;;;;;;12.30;9.53;;;17.00;98.50;;;;;;5025712;28;20201;-30
2023/07/22 05:35:50;;;;;;;13.73;9.50;;;17.00;98.60;;;;;;5037881;28;20233;-31
2023/07/22 05:38:17;;;;;;;14.30;10.13;;;17.10;98.60;;;;;;5027107;28;20249;-30
2023/07/22 05:40:44;;;;;;;13.10;10.03;;;17.10;98.70;;;;;;5025948;28;20273;-26
2023/07/22 05:43:11;;;;;;;16.63;9.93;;;17.20;98.80;;;;;;5032993;28;20207;-26
2023/07/22 05:45:39;;;;;;;14.70;9.63;;;17.20;98.70;;;;;;5028215;28;20259;-26
2023/07/22 05:48:08;;;;;;;15.38;11.13;;;17.20;98.80;;;;;;5026805;28;20637;-26
2023/07/22 05:50:38;;;;;;;11.50;9.43;;;17.30;99.00;;;;;;5024806;28;20214;-26
2023/07/22 05:53:05;;;;;;;13.75;9.57;;;17.30;99.00;;;;;;5028532;28;20209;-25
2023/07/22 05:55:32;;;;;;;12.88;9.18;;;17.30;98.90;;;;;;5026546;28;20228;-26
2023/07/22 05:58:05;;;;;;;14.43;9.33;;;17.30;98.90;;;;;;5028641;28;20278;-26
2023/07/22 06:00:38;;;;;;;13.00;9.32;;;17.40;99.00;;;;;;5035486;28;20287;-25
2023/07/22 06:03:10;;;;;;;16.48;9.73;;;17.40;99.10;;;;;;5047142;28;20204;-26
2023/07/22 06:05:38;;;;;;;13.83;9.50;;;17.40;99.00;;;;;;5029740;28;20220;-26
2023/07/22 06:08:07;;;;;;;11.83;8.20;;;17.50;99.10;;;;;;5038956;28;20207;-26
2023/07/22 06:10:36;;;;;;;12.67;9.07;;;17.50;99.10;;;;;;5028155;28;20306;-26
2023/07/22 06:13:09;;;;;;;12.43;9.30;;;17.60;99.20;;;;;;5027350;28;20855;-26
2023/07/22 06:15:40;;;;;;;14.83;9.80;;;17.60;99.20;;;;;;5026634;28;20287;-26
2023/07/22 06:18:08;;;;;;;11.43;8.90;;;17.70;99.30;;;;;;5029945;28;20279;-26
2023/07/22 06:20:36;;;;;;;13.30;9.37;;;17.70;99.40;;;;;;5043604;28;20606;-26
2023/07/22 06:23:06;;;;;;;14.00;8.80;;;17.70;99.60;;;;;;5040047;28;20216;-26
2023/07/22 06:25:37;;;;;;;12.57;7.95;;;17.80;99.50;;;;;;5029023;28;20207;-26
2023/07/22 06:28:07;;;;;;;11.13;7.90;;;17.80;99.50;;;;;;5035494;28;20563;-26
2023/07/22 06:30:37;;;;;;;12.02;8.23;;;17.90;99.60;;;;;;5042439;28;20471;-26
2023/07/22 06:33:04;;;;;;;9.53;7.60;;;17.90;99.60;;;;;;5025823;28;20219;-26
2023/07/22 06:35:31;;;;;;;13.50;8.48;;;18.00;99.70;;;;;;5027088;28;20579;-25
2023/07/22 06:37:59;;;;;;;10.57;8.10;;;18.10;99.80;;;;;;5044418;28;20244;-26
2023/07/22 06:40:26;;;;;;;11.90;7.68;;;18.10;99.90;;;;;;5035632;28;20631;-26
2023/07/22 06:42:53;;;;;;;10.60;7.05;;;18.20;99.90;;;;;;5031488;28;20653;-26
2023/07/22 06:45:21;;;;;;;13.13;8.00;;;18.30;99.90;;;;;;5043220;28;20203;-26
2023/07/22 06:47:53;;;;;;;10.35;7.38;;;18.30;99.90;;;;;;5031473;28;20196;-26
2023/07/22 06:50:23;;;;;;;11.68;7.22;;;18.40;99.90;;;;;;5039928;28;20201;-25
2023/07/22 06:52:50;;;;;;;9.85;6.88;;;18.40;99.90;;;;;;5036337;28;20212;-26
2023/07/22 06:55:20;;;;;;;11.52;7.10;;;18.50;99.90;;;;;;5031412;28;20207;-30
2023/07/22 06:57:48;;;;;;;11.60;7.43;;;18.60;99.90;;;;;;5027008;28;20248;-30
2023/07/22 07:00:19;;;;;;;10.35;7.10;;;18.60;99.90;;;;;;5025059;28;20212;-30
2023/07/22 07:02:46;;;;;;;13.85;7.47;;;18.70;99.90;;;;;;5024839;28;20721;-30
2023/07/22 07:05:16;;;;;;;13.20;7.00;;;18.70;99.90;;;;;;5027127;28;20207;-31
2023/07/22 07:07:46;;;;;;;10.07;7.05;;;18.80;99.90;;;;;;5042741;28;20578;-30
2023/07/22 07:10:16;;;;;;;11.68;7.05;;;18.80;99.90;;;;;;5027333;28;20685;-30
2023/07/22 07:12:46;;;;;;;10.27;7.07;;;18.80;99.90;;;;;;5044328;28;20208;-30
2023/07/22 07:15:15;;;;;;;9.57;7.07;;;18.90;99.90;;;;;;5025220;28;20212;-30
2023/07/22 07:17:45;;;;;;;8.38;5.90;;;18.90;99.90;;;;;;5034538;28;20580;-30
2023/07/22 07:20:14;;;;;;;7.82;6.55;;;19.00;99.90;;;;;;5025976;28;20612;-30
2023/07/22 07:22:46;;;;;;;8.25;6.65;;;19.00;99.90;;;;;;5043262;28;20306;-30
2023/07/22 07:25:16;;;;;;;10.20;6.65;;;19.00;99.90;;;;;;5037116;28;20209;-30
2023/07/22 07:27:43;;;;;;;8.98;5.88;;;19.10;99.90;;;;;;5045333;28;20646;-30
2023/07/22 07:30:11;;;;;;;11.80;6.20;;;19.10;99.90;;;;;;5041577;28;20218;-30
2023/07/22 07:32:38;;;;;;;11.90;6.60;;;19.20;99.90;;;;;;5042081;28;20278;-30
2023/07/22 07:35:06;;;;;;;10.15;5.95;;;19.20;99.90;;;;;;5037219;28;20208;-30
2023/07/22 07:37:35;;;;;;;10.93;6.22;;;19.30;99.90;;;;;;5036497;28;20213;-30
2023/07/22 07:40:05;;;;;;;10.13;5.60;;;19.30;99.90;;;;;;5049374;28;20257;-30
2023/07/22 07:42:35;;;;;;;12.45;6.63;;;19.40;99.90;;;;;;5040205;28;20214;-30
2023/07/22 07:45:08;;;;;;;7.97;5.20;;;19.40;99.90;;;;;;5027510;28;20697;-30
2023/07/22 07:47:35;;;;;;;11.13;6.38;;;19.50;99.90;;;;;;5034365;28;20208;-30
2023/07/22 07:50:06;;;;;;;10.43;5.60;;;19.60;99.90;;;;;;5034638;28;20223;-30
2023/07/22 07:52:34;;;;;;;8.38;4.90;;;19.60;99.90;;;;;;5028405;28;20208;-30
2023/07/22 07:55:01;;;;;;;10.23;5.18;;;19.70;99.90;;;;;;5027686;28;20185;-30
2023/07/22 07:57:31;;;;;;;7.00;4.53;;;19.80;99.90;;;;;;5027464;28;20681;-30
2023/07/22 08:00:00;;;;;;;6.57;4.32;;;19.80;99.90;;;;;;5027569;28;20217;-30
2023/07/22 08:02:30;;;;;;;6.43;4.50;;;19.90;99.90;;;;;;5028764;28;20522;-30
2023/07/22 08:05:00;;;;;;;9.95;5.43;;;19.90;99.90;;;;;;5027561;28;20224;-33
2023/07/22 08:07:29;;;;;;;9.77;4.32;;;20.00;99.90;;;;;;5028052;28;20216;-30
2023/07/22 08:09:59;;;;;;;7.57;3.95;;;20.00;99.90;;;;;;5029667;28;20247;-30
2023/07/22 08:12:26;;;;;;;7.72;4.05;;;20.10;99.90;;;;;;5027595;28;20197;-30
2023/07/22 08:14:56;;;;;;;6.78;4.20;;;20.20;99.90;;;;;;5043044;28;20725;-30
2023/07/22 08:17:25;;;;;;;7.97;4.03;;;20.20;99.90;;;;;;5028484;28;20213;-30
2023/07/22 08:19:53;;;;;;;7.22;4.18;;;20.20;99.90;;;;;;5037465;28;20259;-30
2023/07/22 08:22:22;;;;;;;7.20;4.05;;;20.20;99.90;;;;;;5047716;28;20208;-30
2023/07/22 08:24:52;;;;;;;8.52;3.85;;;20.20;99.90;;;;;;5048719;28;20679;-30
2023/07/22 08:27:24;;;;;;;9.93;4.20;;;20.20;99.90;;;;;;5034112;28;20188;-30
2023/07/22 08:29:51;;;;;;;8.07;3.85;;;20.30;99.90;;;;;;5029646;28;20565;-30
2023/07/22 08:32:20;;;;;;;4.85;3.60;;;20.30;99.90;;;;;;5028108;28;20235;-30
2023/07/22 08:34:51;;;;;;;5.93;3.63;;;20.40;99.90;;;;;;5028167;28;20278;-29
2023/07/22 08:37:18;;;;;;;6.72;3.47;;;20.50;99.90;;;;;;5027745;28;20272;-30
2023/07/22 08:39:47;;;;;;;10.27;3.40;;;20.50;99.90;;;;;;5027777;28;20323;-30
2023/07/22 08:42:19;;;;;;;8.10;3.95;;;20.60;99.90;;;;;;5027023;28;20556;-30
2023/07/22 08:44:48;;;;;;;6.85;3.40;;;20.70;99.90;;;;;;5038670;28;20718;-30
2023/07/22 08:47:22;;;;;;;7.00;3.25;;;20.80;99.90;;;;;;5047019;28;20315;-30
2023/07/22 08:49:52;;;;;;;7.43;3.08;;;20.80;99.90;;;;;;5029074;28;20204;-30
2023/07/22 08:52:22;;;;;;;5.28;2.78;;;20.80;99.90;;;;;;5039627;28;20212;-30
2023/07/22 08:54:54;;;;;;;9.13;3.40;;;20.90;99.90;;;;;;5044606;28;20313;-30
2023/07/22 08:57:28;;;;;;;7.25;3.20;;;20.90;99.90;;;;;;5027975;28;20216;-30
2023/07/22 08:59:57;;;;;;;4.90;2.80;;;21.00;99.90;;;;;;5032775;28;20219;-30
2023/07/22 09:02:25;;;;;;;6.50;2.67;;;21.00;99.90;;;;;;5034828;28;20731;-30
2023/07/22 09:04:58;;;;;;;4.95;3.03;;;21.10;99.90;;;;;;5040527;28;20623;-30
2023/07/22 09:07:26;;;;;;;8.93;3.72;;;21.10;99.90;;;;;;5035046;28;20204;-30
2023/07/22 09:09:54;;;;;;;5.32;3.08;;;21.20;99.90;;;;;;5034865;28;20243;-30
2023/07/22 09:12:26;;;;;;;3.30;2.50;;;21.10;99.90;;;;;;5028754;28;20217;-30
2023/07/22 09:14:54;;;;;;;3.28;2.50;;;21.20;99.90;;;;;;5037152;28;20567;-30
2023/07/22 09:17:27;;;;;;;4.35;2.40;;;21.20;99.90;;;;;;5039694;28;20208;-30
2023/07/22 09:19:57;;;;;;;4.75;2.63;;;21.30;99.90;;;;;;5047311;28;20355;-30
2023/07/22 09:22:31;;;;;;;3.40;2.33;;;21.30;99.90;;;;;;5045106;28;20204;-30
2023/07/22 09:25:17;;;;;;;4.75;2.78;;;21.40;99.90;;;;;;5045806;28;20220;-30
2023/07/22 09:27:49;;;;;;;4.00;2.63;;;21.40;99.90;;;;;;5026497;28;20205;-30
2023/07/22 09:30:26;;;;;;;7.47;2.55;;;21.40;99.90;;;;;;5027697;28;20240;-30
2023/07/22 09:32:57;;;;;;;5.20;3.13;;;21.40;99.90;;;;;;5028750;28;20212;-30
2023/07/22 09:35:44;;;;;;;3.42;2.10;;;21.40;99.90;;;;;;5045003;28;20711;-30
2023/07/22 09:38:11;;;;;;;4.07;2.55;;;21.40;99.90;;;;;;5032321;28;20244;-30
2023/07/22 09:40:40;;;;;;;4.93;2.28;;;21.50;99.90;;;;;;5025043;28;20208;-30
2023/07/22 09:43:12;;;;;;;4.43;2.60;;;21.50;99.90;;;;;;5027081;28;20216;-30
2023/07/22 09:45:39;;;;;;;5.00;2.63;;;21.50;99.90;;;;;;5029994;28;20220;-30
2023/07/22 09:48:12;;;;;;;4.25;2.55;;;21.50;99.90;;;;;;5026430;28;20267;-30
2023/07/22 09:50:42;;;;;;;4.10;2.33;;;21.50;99.90;;;;;;5034770;28;20709;-30
2023/07/22 09:53:15;;;;;;;4.88;3.05;;;21.50;99.90;;;;;;5044427;28;20204;-30
2023/07/22 09:55:43;;;;;;;3.95;2.97;;;21.50;99.90;;;;;;5025336;28;20217;-31
2023/07/22 09:58:14;;;;;;;2.95;2.47;;;21.50;99.90;;;;;;5025058;28;20574;-30
2023/07/22 10:00:50;;;;;;;3.75;2.53;;;21.50;99.90;;;;;;5028007;28;20200;-30
2023/07/22 10:03:19;;;;;;;5.85;2.85;;;21.60;99.90;;;;;;5044914;28;20206;-30
2023/07/22 10:05:49;;;;;;;3.92;2.53;;;21.60;99.90;;;;;;5026127;28;20220;-30
2023/07/22 10:08:19;;;;;;;4.57;2.55;;;21.60;99.90;;;;;;5029351;28;20196;-30
2023/07/22 10:10:53;;;;;;;4.85;3.13;;;21.60;99.90;;;;;;5023319;28;20200;-30
2023/07/22 10:13:21;;;;;;;3.60;2.65;;;21.60;99.90;;;;;;5026309;28;20290;-30
2023/07/22 10:15:51;;;;;;;3.67;2.63;;;21.60;99.90;;;;;;5029581;28;20208;-30
2023/07/22 10:18:26;;;;;;;4.20;2.60;;;21.60;99.90;;;;;;5029298;28;20247;-30
2023/07/22 10:20:54;;;;;;;4.45;2.75;;;21.70;99.90;;;;;;5028660;28;20205;-30
2023/07/22 10:23:25;;;;;;;3.60;2.30;;;21.70;99.90;;;;;;5032679;28;20204;-30
2023/07/22 10:25:57;;;;;;;4.78;2.50;;;21.70;99.90;;;;;;5024825;28;20236;-30
2023/07/22 10:28:29;;;;;;;5.32;2.47;;;21.70;99.90;;;;;;5025803;28;20570;-30
2023/07/22 10:30:59;;;;;;;4.43;2.17;;;21.70;99.90;;;;;;5023941;28;20220;-30
2023/07/22 10:33:27;;;;;;;3.13;2.17;;;21.80;99.90;;;;;;5029475;28;20227;-30
2023/07/22 10:36:04;;;;;;;3.83;2.22;;;21.80;99.90;;;;;;5032558;28;20259;-30
2023/07/22 10:38:32;;;;;;;3.00;2.28;;;21.90;99.90;;;;;;5025072;28;20676;-30
2023/07/22 10:40:59;;;;;;;3.33;2.10;;;21.90;99.90;;;;;;5031910;28;20294;-30
2023/07/22 10:43:34;;;;;;;2.28;1.85;;;21.90;99.90;;;;;;5037609;28;20266;-30
2023/07/22 10:46:13;;;;;;;2.85;2.20;;;22.00;99.90;;;;;;5026510;28;20205;-31
2023/07/22 10:48:45;;;;;;;2.33;1.63;;;22.00;99.70;;;;;;5027048;28;20283;-31
2023/07/22 10:51:17;;;;;;;2.78;1.88;;;22.10;99.90;;;;;;5025790;28;20282;-31
2023/07/22 10:53:50;;;;;;;3.03;2.20;;;22.10;99.90;;;;;;5024821;28;20224;-30
2023/07/22 10:56:24;;;;;;;4.68;2.00;;;22.10;99.90;;;;;;5037261;28;20252;-31
2023/07/22 10:58:52;;;;;;;3.05;2.08;;;22.10;99.80;;;;;;5024578;28;20220;-30
2023/07/22 11:01:29;;;;;;;2.10;1.80;;;22.10;99.90;;;;;;5029908;28;20192;-30
2023/07/22 11:04:17;;;;;;;2.95;1.88;;;22.20;99.90;;;;;;5028580;28;20207;-30
2023/07/22 11:06:48;;;;;;;2.75;2.08;;;22.20;99.90;;;;;;5025160;28;20208;-30
2023/07/22 11:09:30;;;;;;;8.50;4.30;;;22.20;99.80;;;;;;5031672;28;20690;-31
2023/07/22 11:12:20;;;;;;;12.18;6.55;;;22.30;99.50;;;;;;5025726;28;20200;-31
2023/07/22 11:15:02;;;;;;;16.88;8.95;;;22.30;99.20;;;;;;5037851;28;20670;-31
2023/07/22 11:17:31;;;;;;;7.03;3.85;;;22.30;99.60;;;;;;5042212;28;20208;-31
2023/07/22 11:20:02;;;;;;;4.25;2.20;;;22.40;99.70;;;;;;5036359;28;20228;-31
2023/07/22 11:22:29;;;;;;;3.95;2.30;;;22.40;99.80;;;;;;5044976;28;20971;-31
2023/07/22 11:25:00;;;;;;;3.67;1.90;;;22.50;99.60;;;;;;5043101;28;20579;-31
2023/07/22 11:27:28;;;;;;;3.13;2.00;;;22.60;99.60;;;;;;5023307;28;20210;-31
2023/07/22 11:30:03;;;;;;;2.25;1.90;;;22.60;99.50;;;;;;5028549;28;20241;-31
2023/07/22 11:32:32;;;;;;;2.65;1.90;;;22.60;99.50;;;;;;5051283;28;20204;-31
2023/07/22 11:35:02;;;;;;;2.28;1.80;;;22.70;99.70;;;;;;5023568;28;20213;-31
2023/07/22 11:37:33;;;;;;;2.28;1.70;;;22.70;99.30;;;;;;5034436;28;20379;-31
2023/07/22 11:40:08;;;;;;;2.25;1.50;;;22.80;99.50;;;;;;5041548;28;20722;-31
2023/07/22 11:42:35;;;;;;;3.78;1.60;;;22.90;99.60;;;;;;5035946;28;20204;-31
2023/07/22 11:45:05;;;;;;;2.50;1.63;;;23.00;99.70;;;;;;5029008;28;20200;-26
2023/07/22 11:47:33;;;;;;;3.53;1.92;;;23.00;99.60;;;;;;5041226;28;20216;-26
2023/07/22 11:50:01;;;;;;;2.22;1.80;;;23.00;99.40;;;;;;5035691;28;20204;-26
2023/07/22 11:52:30;;;;;;;3.03;1.80;;;23.10;99.70;;;;;;5039471;28;20274;-26
2023/07/22 11:55:04;;;;;;;2.70;2.00;;;23.10;99.10;;;;;;5031949;28;20286;-31
2023/07/22 11:57:39;;;;;;;2.70;1.90;;;23.10;99.10;;;;;;5037152;28;20221;-31
2023/07/22 12:00:10;;;;;;;4.18;2.05;;;23.10;99.10;;;;;;5024400;28;20309;-31
2023/07/22 12:02:41;;;;;;;3.15;2.10;;;23.10;98.80;;;;;;5023610;28;20639;-31
2023/07/22 12:05:08;;;;;;;3.08;2.05;;;23.10;99.00;;;;;;5028820;28;20302;-31
2023/07/22 12:07:37;;;;;;;3.13;2.17;;;23.10;99.10;;;;;;5043604;28;20626;-31
2023/07/22 12:10:10;;;;;;;4.65;2.30;;;23.20;99.20;;;;;;5042093;28;20224;-31
2023/07/22 12:12:53;;;;;;;3.42;1.98;;;23.20;99.30;;;;;;5027505;28;20209;-31
2023/07/22 12:15:23;;;;;;;2.75;2.05;;;23.30;99.40;;;;;;5029526;28;20209;-31
2023/07/22 12:17:56;;;;;;;3.45;2.28;;;23.40;99.20;;;;;;5028680;28;20710;-31
2023/07/22 12:20:31;;;;;;;3.08;2.38;;;23.50;99.30;;;;;;5029663;28;20316;-32
2023/07/22 12:23:03;;;;;;;2.47;2.00;;;23.50;99.00;;;;;;5035038;28;20282;-31
2023/07/22 12:25:32;;;;;;;5.47;2.30;;;23.50;99.00;;;;;;5029190;28;20216;-31
2023/07/22 12:28:00;;;;;;;2.05;1.85;;;23.50;98.40;;;;;;5025798;28;20217;-31
2023/07/22 12:30:31;;;;;;;3.60;2.35;;;23.50;98.70;;;;;;5035129;28;20207;-31
2023/07/22 12:33:04;;;;;;;3.60;2.33;;;23.50;98.70;;;;;;5035834;28;20324;-31
2023/07/22 12:35:31;;;;;;;3.47;2.35;;;23.50;98.80;;;;;;5027081;28;20224;-31
2023/07/22 12:38:01;;;;;;;3.03;2.00;;;23.50;98.30;;;;;;5038182;28;20240;-31
2023/07/22 12:40:32;;;;;;;2.50;2.20;;;23.50;98.40;;;;;;5036412;28;20670;-26
2023/07/22 12:43:00;;;;;;;3.15;2.15;;;23.50;98.50;;;;;;5033339;28;20300;-26
2023/07/22 12:45:32;;;;;;;4.10;2.20;;;23.60;98.70;;;;;;5034372;28;20225;-26
2023/07/22 12:48:00;;;;;;;4.95;1.83;;;23.70;98.80;;;;;;5032993;28;20197;-26
2023/07/22 12:50:32;;;;;;;2.95;1.70;;;23.70;98.40;;;;;;5041524;28;20212;-26
2023/07/22 12:53:00;;;;;;;2.17;1.85;;;23.60;98.20;;;;;;5048072;28;20204;-26
2023/07/22 12:55:29;;;;;;;3.28;1.88;;;23.60;98.40;;;;;;5043946;28;20208;-26